MAPA DE AEROPUERTO

INFORMACIÓN METAR y TAF

METAR FOR LEZG
ADDS - METARS form results

(2342 UTC 21 February 2020)
Data provider http://aviationweather.gov/metar/data/
 
METAR text: LEZG 212330Z VRB01KT CAVOK 07/04 Q1030
Conditions at: LEZG (ZARAGOZA (MIL/CI, ES) observed 2330 UTC 21 February 2020
Temperature: 7.0°C (45°F)
Dewpoint: 4.0°C (39°F) [RH = 81%]
Pressure (altimeter): 30.41 inches Hg (1030.0 mb)
Winds: variable direction winds at 1 MPH (1 knots; 0.5 m/s)
Visibility: 6 or more miles (10+ km)
Ceiling: ceiling and visibility are OK
Clouds: unknown
Weather: no significant weather observed at this time

METAR text: LEZG 212300Z 17001KT CAVOK 08/05 Q1030
Conditions at: LEZG (ZARAGOZA (MIL/CI, ES) observed 2300 UTC 21 February 2020
Temperature: 8.0°C (46°F)
Dewpoint: 5.0°C (41°F) [RH = 81%]
Pressure (altimeter): 30.41 inches Hg (1030.0 mb)
Winds: from the S (170 degrees) at 1 MPH (1 knots; 0.5 m/s)
Visibility: 6 or more miles (10+ km)
Ceiling: ceiling and visibility are OK
Clouds: unknown
Weather: no significant weather observed at this time

Forecast for: LEZG (ZARAGOZA (MIL/CI, ES)
Text: TAF LEZG 212300Z 2200/2224 26007KT CAVOK TX19/2213Z TN03/2206Z
Forecast period: 0000 UTC 22 February 2020 to 0000 UTC 23 February 2020
Forecast type: FROM: standard forecast or significant change
Winds: from the W (260 degrees) at 8 MPH (7 knots; 3.6 m/s)
Visibility: 6 or more miles 10+ km)
Ceiling: unknown
Clouds: missing
Weather: no significant weather forecast for this period